Time;durP1;ratioP1;P1;durP2;ratioP2;P2;SDS_P1;SDS_P2;PMS_P1;PMS_P2;Temp;Humidity;BMP_temperature;BMP_pressure;BME280_temperature;BME280_humidity;BME280_pressure;Samples;Min_cycle;Max_cycle;Signal;HPM_P1;HPM_P2
2022/05/09 00:01:00;;;;;;;11.25;5.50;;;;;;;11.70;100.00;101464.16;5044140;28;20039;-81
2022/05/09 00:03:25;;;;;;;14.15;4.75;;;;;;;11.68;100.00;101457.25;5023738;28;20528;-78
2022/05/09 00:05:51;;;;;;;19.52;7.13;;;;;;;11.68;100.00;101463.47;5026152;28;20044;-79
2022/05/09 00:08:18;;;;;;;8.50;3.90;;;;;;;11.68;100.00;101468.84;5009285;28;20040;-81
2022/05/09 00:10:46;;;;;;;12.27;5.70;;;;;;;11.60;100.00;101450.00;5043030;28;20478;-81
2022/05/09 00:13:12;;;;;;;14.23;5.38;;;;;;;11.62;100.00;101451.50;5023977;28;20029;-78
2022/05/09 00:15:38;;;;;;;13.15;5.82;;;;;;;11.52;100.00;101437.34;5036960;28;20082;-79
2022/05/09 00:18:03;;;;;;;14.63;6.00;;;;;;;11.40;100.00;101423.34;5045389;28;20040;-78
2022/05/09 00:20:29;;;;;;;14.52;5.68;;;;;;;11.45;100.00;101430.94;5044840;28;20037;-79
2022/05/09 00:22:55;;;;;;;13.32;5.90;;;;;;;11.48;100.00;101435.97;5019569;28;20171;-79
2022/05/09 00:25:26;;;;;;;15.25;5.57;;;;;;;11.50;100.00;101431.28;5044850;28;20033;-81
2022/05/09 00:27:52;;;;;;;14.18;5.78;;;;;;;11.52;100.00;101431.13;5049680;28;20406;-79
2022/05/09 00:30:18;;;;;;;12.27;5.88;;;;;;;11.50;100.00;101433.13;5043587;28;20071;-79
2022/05/09 00:32:44;;;;;;;14.48;6.05;;;;;;;11.55;100.00;101420.84;5049223;28;20024;-79
2022/05/09 00:35:10;;;;;;;13.80;5.65;;;;;;;11.67;100.00;101440.25;5040136;28;20033;-79
2022/05/09 00:37:36;;;;;;;15.63;6.22;;;;;;;11.64;100.00;101430.66;5045510;28;20033;-80
2022/05/09 00:40:05;;;;;;;12.27;5.28;;;;;;;11.74;100.00;101435.84;5027776;28;20123;-79
2022/05/09 00:42:31;;;;;;;16.23;7.25;;;;;;;11.78;100.00;101437.22;5027600;28;20045;-79
2022/05/09 00:44:57;;;;;;;9.65;4.43;;;;;;;11.75;100.00;101426.78;5027457;28;20037;-80
2022/05/09 00:47:22;;;;;;;17.67;6.40;;;;;;;11.80;100.00;101432.50;5028612;28;20025;-79
2022/05/09 00:49:52;;;;;;;13.13;6.10;;;;;;;11.80;100.00;101429.81;5045688;28;20455;-79
2022/05/09 00:52:31;;;;;;;12.10;5.45;;;;;;;11.75;100.00;101407.06;5042624;28;20033;-79
2022/05/09 00:55:06;;;;;;;10.75;4.35;;;;;;;11.85;100.00;101411.28;5006806;28;20083;-79
2022/05/09 00:57:43;;;;;;;10.13;5.15;;;;;;;11.74;100.00;101392.75;5026714;28;20032;-79
2022/05/09 01:00:15;;;;;;;18.23;6.97;;;;;;;11.66;100.00;101376.59;5045268;28;20029;-79
2022/05/09 01:02:44;;;;;;;15.43;6.75;;;;;;;11.80;100.00;101396.63;5044960;28;20049;-80
2022/05/09 01:05:12;;;;;;;10.75;5.35;;;;;;;11.83;100.00;101396.31;5025865;28;20029;-80
2022/05/09 01:07:39;;;;;;;25.67;6.07;;;;;;;11.81;100.00;101392.94;5049235;28;20025;-80
2022/05/09 01:10:06;;;;;;;16.48;6.85;;;;;;;11.84;100.00;101385.34;5030595;28;20124;-79
2022/05/09 01:12:34;;;;;;;16.90;6.07;;;;;;;11.82;100.00;101383.81;5047291;28;20041;-78
2022/05/09 01:15:03;;;;;;;16.40;6.80;;;;;;;11.81;100.00;101366.81;5065991;28;20032;-79
2022/05/09 01:17:29;;;;;;;17.27;6.38;;;;;;;11.80;100.00;101361.59;5067741;28;20298;-79
2022/05/09 01:19:55;;;;;;;14.20;6.55;;;;;;;11.73;100.00;101339.88;5036774;28;20040;-79
2022/05/09 01:22:29;;;;;;;14.38;4.93;;;;;;;11.70;100.00;101347.47;5072747;28;20088;-79
2022/05/09 01:25:02;;;;;;;17.48;6.40;;;;;;;11.68;100.00;101328.78;5059272;28;20067;-81
2022/05/09 01:27:28;;;;;;;10.00;5.47;;;;;;;11.62;100.00;101313.31;5048148;28;20037;-81
2022/05/09 01:30:13;;;;;;;14.93;6.30;;;;;;;11.63;100.00;101323.06;5016242;28;20384;-79
2022/05/09 01:32:45;;;;;;;12.07;4.93;;;;;;;11.64;100.00;101313.94;5026336;28;20457;-80
2022/05/09 01:35:19;;;;;;;10.98;4.65;;;;;;;11.65;100.00;101318.34;5015285;28;20045;-80
2022/05/09 01:37:52;;;;;;;9.63;4.40;;;;;;;11.67;100.00;101324.41;5033145;28;20033;-80
2022/05/09 01:40:17;;;;;;;11.07;5.28;;;;;;;11.64;100.00;101313.94;5048880;28;20052;-78
2022/05/09 01:42:44;;;;;;;11.25;5.38;;;;;;;11.68;100.00;101312.63;5032830;28;20052;-78
2022/05/09 01:45:11;;;;;;;14.98;6.43;;;;;;;11.59;100.00;101298.31;5011788;28;20033;-79
2022/05/09 01:50:20;;;;;;;9.65;4.57;;;;;;;11.60;100.00;101283.00;5044973;28;20116;-79
2022/05/09 01:52:46;;;;;;;15.35;6.35;;;;;;;11.62;100.00;101297.13;5044646;28;20121;-79
2022/05/09 01:55:12;;;;;;;7.95;4.10;;;;;;;11.65;100.00;101302.19;5047484;28;20067;-79
2022/05/09 01:57:41;;;;;;;12.50;5.88;;;;;;;11.66;100.00;101298.47;5050163;28;20051;-79
2022/05/09 02:00:09;;;;;;;9.77;3.97;;;;;;;11.68;100.00;101292.94;5032524;28;20482;-79
2022/05/09 02:02:35;;;;;;;15.48;6.30;;;;;;;11.67;100.00;101278.63;5017184;28;20045;-79
2022/05/09 02:05:01;;;;;;;13.07;5.65;;;;;;;11.74;100.00;101278.75;5013650;28;20118;-79
2022/05/09 02:07:27;;;;;;;5.07;3.28;;;;;;;11.72;100.00;101265.44;5051145;28;20075;-79
2022/05/09 02:09:55;;;;;;;10.38;5.65;;;;;;;11.74;100.00;101266.13;5045399;28;20033;-79
2022/05/09 02:12:21;;;;;;;11.77;5.55;;;;;;;11.79;100.00;101266.47;5033124;28;20134;-79
2022/05/09 02:14:48;;;;;;;12.13;5.97;;;;;;;11.80;100.00;101246.59;5043692;28;20630;-79
2022/05/09 02:17:14;;;;;;;17.38;6.32;;;;;;;11.75;100.00;101223.84;5046947;28;20036;-79
2022/05/09 02:19:40;;;;;;;13.38;6.00;;;;;;;11.78;100.00;101231.63;5015678;28;20040;-81
2022/05/09 02:22:08;;;;;;;14.90;6.28;;;;;;;11.71;100.00;101236.84;5031023;28;20478;-80
2022/05/09 02:24:33;;;;;;;9.93;5.40;;;;;;;11.73;100.00;101239.38;5030063;28;20121;-79
2022/05/09 02:27:00;;;;;;;9.27;4.53;;;;;;;11.74;100.00;101231.09;5047379;28;20111;-80
2022/05/09 02:29:25;;;;;;;10.82;5.47;;;;;;;11.67;100.00;101224.75;5029390;28;20052;-78
2022/05/09 02:31:51;;;;;;;10.73;4.82;;;;;;;11.76;100.00;101218.31;5045861;28;20136;-79
2022/05/09 02:34:17;;;;;;;14.18;6.18;;;;;;;11.76;100.00;101218.31;5023973;28;20042;-79
2022/05/09 02:36:42;;;;;;;11.13;4.72;;;;;;;11.79;100.00;101223.34;5048852;28;20500;-80
2022/05/09 02:39:08;;;;;;;11.57;4.78;;;;;;;11.79;100.00;101219.81;5024620;28;20021;-81
2022/05/09 02:41:34;;;;;;;9.13;5.15;;;;;;;11.81;100.00;101215.09;5028099;28;20518;-79
2022/05/09 02:44:00;;;;;;;10.32;4.38;;;;;;;11.73;100.00;101202.50;5046526;28;20025;-79
2022/05/09 02:46:26;;;;;;;5.30;3.58;;;;;;;11.80;100.00;101208.00;5046237;28;20028;-79
2022/05/09 02:48:51;;;;;;;11.45;5.05;;;;;;;11.82;100.00;101203.31;5028583;28;20025;-79
2022/05/09 02:51:17;;;;;;;14.82;5.97;;;;;;;11.71;100.00;101185.66;5032113;28;20044;-79
2022/05/09 02:53:43;;;;;;;14.93;6.32;;;;;;;11.78;100.00;101202.81;5045858;28;20116;-79
2022/05/09 02:56:10;;;;;;;16.02;6.40;;;;;;;11.80;100.00;101210.72;5047257;28;20532;-79
2022/05/09 02:58:36;;;;;;;8.48;3.80;;;;;;;11.63;100.00;101170.34;5044017;28;20033;-79
2022/05/09 03:01:03;;;;;;;9.05;4.70;;;;;;;11.82;100.00;101195.22;5044993;28;20033;-78
2022/05/09 03:06:12;;;;;;;10.55;5.00;;;;;;;11.78;100.00;101191.22;5041601;28;20021;-79
2022/05/09 03:08:38;;;;;;;14.75;5.78;;;;;;;11.83;100.00;101199.63;5029671;28;20040;-79
2022/05/09 03:11:03;;;;;;;14.30;5.78;;;;;;;11.78;100.00;101192.03;5045381;28;20037;-78
2022/05/09 03:13:38;;;;;;;13.90;6.20;;;;;;;11.80;100.00;101191.84;5038837;28;20025;-79
2022/05/09 03:16:05;;;;;;;9.93;5.53;;;;;;;11.81;100.00;101198.94;5025890;28;20033;-80
2022/05/09 03:18:33;;;;;;;15.07;6.35;;;;;;;11.82;100.00;101190.66;5013016;28;20045;-80
2022/05/09 03:20:59;;;;;;;14.60;6.80;;;;;;;11.82;100.00;101187.13;5009665;28;20131;-80
2022/05/09 03:23:24;;;;;;;8.32;4.75;;;;;;;11.81;100.00;101191.69;5037488;28;20024;-79
2022/05/09 03:25:50;;;;;;;11.85;5.72;;;;;;;11.82;100.00;101181.75;5008449;28;20044;-79
2022/05/09 03:28:19;;;;;;;15.38;6.40;;;;;;;11.77;100.00;101176.03;5044627;28;20099;-79
2022/05/09 03:30:47;;;;;;;10.43;4.72;;;;;;;11.61;100.00;101147.28;5044537;28;20033;-80
2022/05/09 03:33:13;;;;;;;12.40;5.45;;;;;;;11.74;100.00;101166.44;5048508;28;20465;-79
2022/05/09 03:35:39;;;;;;;8.60;4.35;;;;;;;11.85;100.00;101187.66;5011838;28;20102;-79
2022/05/09 03:38:04;;;;;;;12.98;5.20;;;;;;;11.88;100.00;101183.78;5048894;28;20444;-79
2022/05/09 03:40:30;;;;;;;10.18;4.43;;;;;;;11.81;100.00;101166.59;5010739;28;20107;-80
2022/05/09 03:42:56;;;;;;;12.18;5.57;;;;;;;11.83;100.00;101168.13;5030775;28;20037;-79
2022/05/09 03:45:22;;;;;;;15.15;6.40;;;;;;;11.86;100.00;101173.19;5030999;28;20047;-79
2022/05/09 03:47:48;;;;;;;12.88;5.78;;;;;;;11.81;100.00;101170.13;5012314;28;20483;-79
2022/05/09 03:50:14;;;;;;;15.35;7.22;;;;;;;11.79;100.00;101158.69;5014643;28;20136;-79
2022/05/09 03:52:42;;;;;;;10.38;4.60;;;;;;;11.77;100.00;101151.78;5029431;28;20040;-79
2022/05/09 03:55:08;;;;;;;17.85;6.57;;;;;;;11.68;100.00;101151.00;5047841;28;20044;-80
2022/05/09 03:57:43;;;;;;;15.63;6.57;;;;;;;11.62;100.00;101146.31;5046453;28;20052;-79
2022/05/09 04:00:09;;;;;;;17.17;6.82;;;;;;;11.48;100.00;101128.16;5044266;28;20090;-81
2022/05/09 04:02:35;;;;;;;13.63;6.70;;;;;;;11.35;100.00;101126.84;5047375;28;20071;-79
2022/05/09 04:05:01;;;;;;;15.18;7.90;;;;;;;11.18;100.00;101117.94;5024002;28;20033;-79
2022/05/09 04:07:27;;;;;;;15.35;7.40;;;;;;;11.12;100.00;101117.81;5049501;28;20547;-80
2022/05/09 04:09:52;;;;;;;9.82;4.95;;;;;;;10.92;100.00;101106.56;5050459;28;20040;-79
2022/05/09 04:12:18;;;;;;;15.00;6.97;;;;;;;10.96;100.00;101114.13;5045836;28;20029;-79
2022/05/09 04:17:35;;;;;;;18.03;7.07;;;;;;;10.91;100.00;101108.41;5026118;28;20486;-80
2022/05/09 04:20:01;;;;;;;17.85;6.35;;;;;;;10.87;100.00;101095.47;5046234;28;20060;-79
2022/05/09 04:22:26;;;;;;;12.00;5.60;;;;;;;10.91;100.00;101094.13;5048313;28;20112;-79
2022/05/09 04:24:52;;;;;;;14.63;6.65;;;;;;;10.91;100.00;101100.34;5047971;28;20115;-79
2022/05/09 04:27:17;;;;;;;19.20;8.48;;;;;;;10.89;100.00;101086.22;5026393;28;20144;-79
2022/05/09 04:29:43;;;;;;;18.88;8.45;;;;;;;10.89;100.00;101066.53;5006184;28;20043;-81
2022/05/09 04:32:11;;;;;;;18.40;7.90;;;;;;;10.90;100.00;101061.00;5031581;28;20044;-79
2022/05/09 04:34:36;;;;;;;15.60;8.27;;;;;;;10.92;100.00;101056.28;5046027;28;20029;-79
2022/05/09 04:37:02;;;;;;;22.00;7.95;;;;;;;10.99;100.00;101073.41;5044713;28;20060;-80
2022/05/09 04:39:27;;;;;;;17.27;7.38;;;;;;;11.05;100.00;101060.28;5042196;28;20033;-79
2022/05/09 04:41:53;;;;;;;18.92;8.27;;;;;;;11.06;100.00;101021.59;5044886;28;20039;-79
2022/05/09 04:44:20;;;;;;;20.77;8.80;;;;;;;11.05;100.00;101017.25;5028482;28;20029;-79
2022/05/09 04:46:45;;;;;;;10.60;6.25;;;;;;;10.99;100.00;101029.53;5044207;28;20395;-79
2022/05/09 04:49:11;;;;;;;16.48;7.82;;;;;;;11.11;100.00;101038.91;5031179;28;20082;-80
2022/05/09 04:51:36;;;;;;;15.18;7.60;;;;;;;11.15;100.00;101042.09;5044377;28;20040;-80
2022/05/09 04:54:02;;;;;;;16.55;6.25;;;;;;;11.01;100.00;101014.06;5028475;28;20025;-79
2022/05/09 04:56:28;;;;;;;10.85;5.35;;;;;;;11.18;100.00;101041.75;5050093;28;20033;-79
2022/05/09 04:58:53;;;;;;;14.07;5.85;;;;;;;11.25;100.00;101042.75;5049818;28;20051;-78
2022/05/09 05:01:19;;;;;;;14.73;6.63;;;;;;;11.07;100.00;101012.53;5048122;28;20102;-79
2022/05/09 05:03:44;;;;;;;14.07;7.22;;;;;;;11.27;100.00;101029.94;5019302;28;20047;-79
2022/05/09 05:06:10;;;;;;;11.93;6.53;;;;;;;11.32;100.00;101032.13;5011968;28;20619;-79
2022/05/09 05:08:36;;;;;;;16.02;6.38;;;;;;;11.37;100.00;101035.13;5048929;28;20036;-80
2022/05/09 05:11:03;;;;;;;17.63;5.55;;;;;;;11.37;100.00;101025.19;5040926;28;20428;-79
2022/05/09 05:13:29;;;;;;;15.05;6.88;;;;;;;11.47;100.00;101040.31;5041809;28;20030;-79
2022/05/09 05:15:55;;;;;;;9.02;4.82;;;;;;;11.49;100.00;101036.44;5039715;28;20497;-79
2022/05/09 05:18:26;;;;;;;13.02;5.50;;;;;;;11.54;100.00;101044.00;5053251;28;20055;-79
2022/05/09 05:20:52;;;;;;;14.40;6.20;;;;;;;11.56;100.00;101052.72;5049183;28;20041;-79
2022/05/09 05:23:18;;;;;;;15.15;6.70;;;;;;;11.54;100.00;101036.75;5031378;28;20429;-79
2022/05/09 05:25:45;;;;;;;13.38;6.22;;;;;;;11.49;100.00;101027.53;5050552;28;20036;-80
2022/05/09 05:28:15;;;;;;;13.43;5.90;;;;;;;11.61;100.00;101039.56;5029171;28;20375;-79
2022/05/09 05:30:41;;;;;;;12.95;4.82;;;;;;;11.63;100.00;101024.91;5009079;28;20047;-79
2022/05/09 05:33:10;;;;;;;14.65;6.38;;;;;;;11.64;100.00;101023.03;5031315;28;20043;-79
2022/05/09 05:35:36;;;;;;;8.13;4.43;;;;;;;11.61;100.00;101026.09;5048212;28;20371;-79
2022/05/09 05:38:01;;;;;;;13.27;5.10;;;;;;;11.69;100.00;101028.75;5043301;28;20166;-80
2022/05/09 05:40:29;;;;;;;12.38;4.43;;;;;;;11.69;100.00;101020.66;5048445;28;20394;-79
2022/05/09 05:42:55;;;;;;;16.50;5.97;;;;;;;11.73;100.00;101037.34;5049453;28;20045;-80
2022/05/09 05:45:22;;;;;;;11.10;5.85;;;;;;;11.72;100.00;101041.84;5029157;28;20029;-80
2022/05/09 05:47:49;;;;;;;10.18;4.57;;;;;;;11.70;100.00;101035.00;5025389;28;20025;-79
2022/05/09 05:50:17;;;;;;;4.55;3.05;;;;;;;11.73;100.00;101034.63;5048621;28;20382;-79
2022/05/09 05:52:42;;;;;;;9.60;4.72;;;;;;;11.76;100.00;101040.50;5033970;28;20131;-79
2022/05/09 05:55:22;;;;;;;8.77;4.68;;;;;;;11.80;100.00;101040.97;5009261;28;20074;-79
2022/05/09 05:57:50;;;;;;;10.30;3.58;;;;;;;11.84;100.00;101037.75;5033716;28;20037;-79
2022/05/09 06:00:28;;;;;;;7.03;3.65;;;;;;;11.82;100.00;101012.00;5014250;28;20090;-79
2022/05/09 06:02:54;;;;;;;8.45;3.67;;;;;;;11.96;100.00;101013.13;5052198;28;20090;-80
2022/05/09 06:05:20;;;;;;;5.57;3.08;;;;;;;12.09;100.00;101008.84;5030580;28;22275;-79
2022/05/09 06:07:48;;;;;;;8.82;4.00;;;;;;;12.19;100.00;101018.53;5049263;28;20436;-80
2022/05/09 06:10:15;;;;;;;8.93;3.47;;;;;;;12.09;100.00;100997.19;5028669;28;20090;-79
2022/05/09 06:12:41;;;;;;;3.67;2.22;;;;;;;12.20;100.00;101004.88;5045486;28;20110;-79
2022/05/09 06:15:28;;;;;;;6.97;3.40;;;;;;;12.21;100.00;101011.94;5042476;28;20474;-80
2022/05/09 06:17:56;;;;;;;11.73;3.65;;;;;;;12.21;100.00;101017.34;5030598;28;20748;-79
2022/05/09 06:20:22;;;;;;;10.15;4.10;;;;;;;12.20;100.00;101020.19;5046299;28;20064;-78
2022/05/09 06:22:48;;;;;;;9.23;4.10;;;;;;;12.28;100.00;101020.16;5037990;28;20068;-78
2022/05/09 06:25:18;;;;;;;12.50;3.50;;;;;;;12.36;100.00;101008.44;5029930;28;20140;-79
2022/05/09 06:27:44;;;;;;;8.00;3.20;;;;;;;12.49;100.00;101019.47;5038676;28;20475;-79
2022/05/09 06:30:11;;;;;;;5.15;2.75;;;;;;;12.53;99.68;100991.13;5042011;28;20033;-79
2022/05/09 06:32:37;;;;;;;7.57;3.50;;;;;;;12.70;98.33;100999.88;5041499;28;20068;-79
2022/05/09 06:35:08;;;;;;;5.10;2.47;;;;;;;12.72;98.26;101000.53;5046832;28;20592;-81
2022/05/09 06:37:33;;;;;;;6.40;3.33;;;;;;;12.60;99.20;101002.84;5020634;28;20478;-79
2022/05/09 06:40:03;;;;;;;4.57;2.60;;;;;;;12.43;100.00;100993.22;5038652;28;20037;-79
2022/05/09 06:42:29;;;;;;;5.60;2.90;;;;;;;12.24;100.00;100983.78;5027164;28;20020;-78
2022/05/09 06:44:55;;;;;;;7.70;3.70;;;;;;;12.16;100.00;100987.38;5015319;28;20226;-81
2022/05/09 06:47:20;;;;;;;8.07;3.30;;;;;;;12.06;100.00;100976.00;5036390;28;20447;-79
2022/05/09 06:49:46;;;;;;;5.82;2.88;;;;;;;12.08;100.00;100955.09;5041771;28;20033;-79
2022/05/09 06:52:12;;;;;;;4.38;2.28;;;;;;;12.09;100.00;100957.63;5024997;28;20532;-78
2022/05/09 06:54:38;;;;;;;4.95;2.83;;;;;;;12.05;100.00;100958.16;5023047;28;20113;-78
2022/05/09 06:57:06;;;;;;;6.47;2.38;;;;;;;11.89;100.00;100940.25;5016743;28;20041;-78
2022/05/09 06:59:33;;;;;;;7.70;3.00;;;;;;;11.88;100.00;100963.69;5044315;28;20124;-79
2022/05/09 07:01:59;;;;;;;6.10;2.58;;;;;;;11.84;100.00;100967.72;5033899;28;20103;-78
2022/05/09 07:04:24;;;;;;;5.07;3.38;;;;;;;11.79;100.00;100975.50;5034149;28;20039;-79
2022/05/09 07:06:50;;;;;;;10.52;4.53;;;;;;;11.85;100.00;100964.00;5026573;28;20567;-79
2022/05/09 07:09:16;;;;;;;16.45;6.65;;;;;;;11.91;100.00;100961.63;5035973;28;20025;-79
2022/05/09 07:11:42;;;;;;;8.38;4.32;;;;;;;11.99;100.00;100945.41;5046166;28;20041;-86
2022/05/09 07:14:08;;;;;;;9.23;5.63;;;;;;;12.11;100.00;100935.88;5022198;28;20070;-81
2022/05/09 07:16:34;;;;;;;10.70;5.40;;;;;;;12.15;100.00;100926.41;5025536;28;20122;-84
2022/05/09 07:19:00;;;;;;;8.95;5.40;;;;;;;12.25;100.00;100921.59;5046571;28;20132;-79
2022/05/09 07:21:26;;;;;;;8.18;3.63;;;;;;;12.39;100.00;100913.72;5011622;28;20123;-80
2022/05/09 07:23:52;;;;;;;8.10;3.15;;;;;;;12.31;100.00;100875.03;5063029;28;20029;-79
2022/05/09 07:26:18;;;;;;;6.20;3.15;;;;;;;12.42;100.00;100881.81;5042475;28;20041;-80
2022/05/09 07:28:43;;;;;;;7.22;3.20;;;;;;;12.52;100.00;100895.06;5030207;28;20048;-79
2022/05/09 07:31:10;;;;;;;6.30;3.53;;;;;;;12.30;100.00;100867.13;5021173;28;20029;-82
2022/05/09 07:33:36;;;;;;;6.18;2.92;;;;;;;12.44;100.00;100897.84;5024509;28;20527;-82
2022/05/09 07:36:03;;;;;;;6.35;3.33;;;;;;;12.35;100.00;100899.75;5024172;28;20033;-81
2022/05/09 07:38:29;;;;;;;4.88;2.58;;;;;;;12.28;100.00;100896.13;5038674;28;20055;-81
2022/05/09 07:40:55;;;;;;;5.00;2.97;;;;;;;12.25;100.00;100893.78;5038094;28;20028;-81
2022/05/09 07:43:24;;;;;;;6.70;3.20;;;;;;;12.25;100.00;100893.78;5040842;28;20087;-82
2022/05/09 07:45:51;;;;;;;5.18;2.30;;;;;;;12.14;100.00;100876.19;5004666;28;20706;-81
2022/05/09 07:48:19;;;;;;;10.50;3.00;;;;;;;12.14;100.00;100869.97;5042114;28;20119;-83
2022/05/09 07:50:45;;;;;;;6.57;3.55;;;;;;;12.03;100.00;100858.63;5003988;28;20651;-83
2022/05/09 07:53:18;;;;;;;9.05;3.83;;;;;;;12.39;100.00;100875.97;5053035;28;20124;-83
2022/05/09 07:55:44;;;;;;;6.95;3.00;;;;;;;12.57;100.00;100871.06;5043580;28;20026;-82
2022/05/09 07:58:10;;;;;;;8.90;3.25;;;;;;;12.50;100.00;100883.59;5025983;28;20037;-81
2022/05/09 08:00:38;;;;;;;5.88;3.28;;;;;;;12.43;100.00;100875.41;5044333;28;20033;-82
2022/05/09 08:03:09;;;;;;;8.68;2.75;;;;;;;12.73;100.00;100880.81;5035815;28;20152;-82
2022/05/09 08:05:35;;;;;;;6.57;3.13;;;;;;;12.85;100.00;100873.06;5024074;28;20037;-82
2022/05/09 08:08:01;;;;;;;9.02;3.80;;;;;;;12.84;100.00;100856.06;5024565;28;20043;-81
2022/05/09 08:10:27;;;;;;;7.63;3.40;;;;;;;12.81;100.00;100845.63;5022471;28;20032;-81
2022/05/09 08:12:52;;;;;;;6.40;2.45;;;;;;;12.63;100.00;100839.78;5024117;28;20047;-81
2022/05/09 08:15:25;;;;;;;9.15;3.22;;;;;;;12.64;100.00;100842.28;5041619;28;20016;-82
2022/05/09 08:17:54;;;;;;;5.70;2.83;;;;;;;12.49;100.00;100836.06;5043667;28;20085;-81
2022/05/09 08:20:20;;;;;;;5.78;3.17;;;;;;;12.32;100.00;100838.94;5048946;28;20024;-82
2022/05/09 08:22:46;;;;;;;5.90;3.17;;;;;;;12.17;100.00;100835.44;5038147;28;20059;-82
2022/05/09 08:25:13;;;;;;;6.10;3.20;;;;;;;12.12;100.00;100842.38;5047282;28;20656;-82
2022/05/09 08:27:39;;;;;;;4.05;2.55;;;;;;;11.97;100.00;100832.41;5044457;28;20029;-81
2022/05/09 08:30:05;;;;;;;5.72;2.30;;;;;;;11.91;100.00;100819.69;5047663;28;20489;-79
2022/05/09 08:32:31;;;;;;;7.10;2.60;;;;;;;11.95;100.00;100828.22;5049245;28;20036;-81
2022/05/09 08:34:57;;;;;;;7.85;3.65;;;;;;;11.98;100.00;100833.25;5042783;28;20041;-81
2022/05/09 08:37:24;;;;;;;3.90;3.25;;;;;;;11.97;100.00;100829.72;5042056;28;20025;-81
2022/05/09 08:39:54;;;;;;;6.97;3.28;;;;;;;12.16;100.00;100812.16;5046570;28;20076;-83
2022/05/09 08:42:25;;;;;;;11.10;4.25;;;;;;;12.53;100.00;100822.03;5060890;28;20016;-82
2022/05/09 08:44:58;;;;;;;11.00;5.03;;;;;;;12.88;100.00;100795.25;5033881;28;20029;-82
2022/05/09 08:47:49;;;;;;;9.40;3.58;;;;;;;13.20;100.00;100815.56;5034693;28;20072;-82
2022/05/09 08:50:26;;;;;;;12.90;7.15;;;;;;;13.35;100.00;100818.22;5060661;28;20071;-82
2022/05/09 08:53:02;;;;;;;4.38;2.92;;;;;;;13.28;100.00;100809.22;5070411;28;20056;-82
2022/05/09 08:55:33;;;;;;;7.43;4.53;;;;;;;13.13;100.00;100820.06;5056133;28;20036;-84
2022/05/09 08:58:20;;;;;;;11.10;5.25;;;;;;;12.97;100.00;100807.63;5035191;28;20115;-83
2022/05/09 09:00:50;;;;;;;5.75;3.20;;;;;;;12.79;100.00;100799.13;5032999;28;20041;-82
2022/05/09 09:03:34;;;;;;;;;;;;;;;;;;;;;
2022/05/09 09:06:28;;;;;;;6.05;3.17;;;;;;;12.79;100.00;100796.41;5047897;28;20600;-83
2022/05/09 09:09:11;;;;;;;8.82;3.13;;;;;;;12.41;100.00;100753.44;5018315;28;20063;-83
2022/05/09 09:12:16;;;;;;;8.38;3.40;;;;;;;12.56;100.00;100787.63;5016612;28;20194;-83
2022/05/09 09:15:12;;;;;;;4.25;2.03;;;;;;;12.38;100.00;100790.69;5027919;28;20041;-82
2022/05/09 09:18:03;;;;;;;9.00;3.22;;;;;;;11.81;100.00;100711.31;5041064;28;20040;-82
2022/05/09 09:21:34;;;;;;;6.53;3.33;;;;;;;12.17;100.00;100780.66;5029267;28;20470;-85
2022/05/09 09:24:32;;;;;;;11.23;3.85;;;;;;;12.13;100.00;100760.50;5051696;28;20045;-89
2022/05/09 09:27:01;;;;;;;6.90;3.85;;;;;;;12.41;100.00;100768.75;5022590;28;20371;-84
2022/05/09 09:30:02;;;;;;;9.52;3.58;;;;;;;12.18;100.00;100707.69;5041884;28;20025;-87
2022/05/09 09:32:32;;;;;;;10.18;3.25;;;;;;;12.23;100.00;100710.66;5006660;28;20048;-81
2022/05/09 09:35:40;;;;;;;2.72;1.02;;;;;;;12.28;100.00;100700.16;5032215;28;20068;-83
2022/05/09 09:38:26;;;;;;;0.45;0.45;;;;;;;12.89;100.00;100753.78;5045709;28;20482;-88
2022/05/09 09:41:33;;;;;;;0.77;0.77;;;;;;;13.02;100.00;100692.84;5040539;28;20049;-89
2022/05/09 09:44:15;;;;;;;0.73;0.73;;;;;;;13.27;100.00;100688.75;5028322;28;20033;-86
2022/05/09 09:47:11;;;;;;;0.40;0.40;;;;;;;13.57;100.00;100731.78;5030836;28;20040;-90
2022/05/09 09:49:48;;;;;;;2.63;1.60;;;;;;;13.29;100.00;100686.69;5052427;28;20536;-87
2022/05/09 09:52:22;;;;;;;0.98;0.88;;;;;;;13.71;100.00;100717.34;5008039;28;20091;-82
2022/05/09 09:55:00;;;;;;;0.88;0.82;;;;;;;13.90;100.00;100726.63;5013390;28;20082;-84
2022/05/09 09:57:35;;;;;;;0.68;0.68;;;;;;;14.05;100.00;100697.59;5026683;28;20139;-84
2022/05/09 10:00:13;;;;;;;;;;;;;;;14.29;100.00;100712.47;5005061;28;20127;-82
2022/05/09 10:02:39;;;;;;;2.70;1.40;;;;;;;14.15;100.00;100704.50;5028780;28;19968;-87
2022/05/09 10:05:15;;;;;;;0.73;0.70;;;;;;;14.01;100.00;100701.72;5038207;28;20049;-87
2022/05/09 10:07:44;;;;;;;1.17;1.08;;;;;;;14.12;100.00;100696.78;5030311;28;20577;-87
2022/05/09 10:10:23;;;;;;;0.80;0.80;;;;;;;14.22;100.00;100676.44;5033273;28;20071;-87
2022/05/09 10:12:56;;;;;;;0.52;0.52;;;;;;;14.44;100.00;100671.72;5022482;28;20091;-87
2022/05/09 10:15:22;;;;;;;0.65;0.65;;;;;;;14.38;100.00;100653.63;5012356;28;20032;-88
2022/05/09 10:17:48;;;;;;;1.42;0.90;;;;;;;14.46;100.00;100666.97;5030076;28;20033;-84
2022/05/09 10:20:32;;;;;;;0.98;0.80;;;;;;;14.33;100.00;100655.28;5046851;28;20116;-85
2022/05/09 10:26:28;;;;;;;0.55;0.55;;;;;;;14.26;100.00;100657.94;5034726;28;20041;-85
2022/05/09 10:28:56;;;;;;;0.60;0.60;;;;;;;14.53;100.00;100642.69;5030291;28;20072;-84
2022/05/09 10:31:34;;;;;;;1.33;1.20;;;;;;;14.77;100.00;100643.97;5015214;28;20036;-84
2022/05/09 10:34:17;;;;;;;1.67;1.00;;;;;;;14.63;100.00;100644.97;5047624;28;20036;-83
2022/05/09 10:36:54;;;;;;;0.60;0.60;;;;;;;14.56;100.00;100633.31;5037155;28;20324;-88
2022/05/09 10:40:00;;;;;;;0.55;0.55;;;;;;;14.28;100.00;100642.34;5014794;28;20033;-86
2022/05/09 10:42:42;;;;;;;0.77;0.77;;;;;;;13.90;100.00;100642.81;5040449;28;20041;-86
2022/05/09 10:45:14;;;;;;;0.57;0.57;;;;;;;13.62;100.00;100623.94;5009519;28;20339;-86
2022/05/09 10:48:18;;;;;;;2.38;1.20;;;;;;;13.79;100.00;100613.66;5039019;28;20034;-83
2022/05/09 10:51:10;;;;;;;1.63;1.48;;;;;;;13.93;100.00;100623.50;5038386;28;20494;-82
2022/05/09 10:53:55;;;;;;;0.50;0.50;;;;;;;13.92;100.00;100621.84;5043759;28;20033;-82
2022/05/09 10:56:38;;;;;;;1.75;1.58;;;;;;;13.69;100.00;100605.09;5048901;28;20106;-82
2022/05/09 10:59:31;;;;;;;0.50;0.50;;;;;;;13.92;100.00;100605.63;5031550;28;20074;-84
2022/05/09 11:02:01;;;;;;;;;;;;;;;13.58;100.00;100615.44;5021538;28;20076;-80
2022/05/09 11:04:30;;;;;;;0.82;0.80;;;;;;;13.30;100.00;100607.34;5029659;28;19921;-87
2022/05/09 11:07:14;;;;;;;0.50;0.50;;;;;;;13.12;100.00;100588.91;5017680;28;20044;-83
2022/05/09 11:09:41;;;;;;;0.45;0.45;;;;;;;13.03;100.00;100606.28;5013969;28;20029;-84
2022/05/09 11:12:21;;;;;;;0.98;0.80;;;;;;;13.00;100.00;100603.16;5047577;28;20367;-83
2022/05/09 11:15:00;;;;;;;0.80;0.80;;;;;;;13.03;100.00;100597.38;5028161;28;20431;-83
2022/05/09 11:18:13;;;;;;;3.65;2.00;;;;;;;13.07;100.00;100591.38;5046357;28;20067;-81
2022/05/09 11:20:53;;;;;;;1.15;0.90;;;;;;;12.94;100.00;100573.22;5022467;28;20045;-84
2022/05/09 11:23:40;;;;;;;0.80;0.77;;;;;;;13.09;100.00;100591.16;5009261;28;20041;-87
2022/05/09 11:26:13;;;;;;;9.48;1.38;;;;;;;13.03;100.00;100584.69;5031841;28;20037;-83
2022/05/09 11:29:09;;;;;;;0.57;0.57;;;;;;;13.02;100.00;100592.97;5048298;28;20132;-84
2022/05/09 11:31:35;;;;;;;0.70;0.70;;;;;;;12.98;100.00;100573.66;5030650;28;20036;-85
2022/05/09 11:34:22;;;;;;;4.45;1.52;;;;;;;13.18;100.00;100588.13;5031065;28;20633;-85
2022/05/09 11:37:12;;;;;;;0.63;0.63;;;;;;;13.33;100.00;100577.25;5029221;28;20072;-83
2022/05/09 11:39:56;;;;;;;1.00;0.80;;;;;;;13.49;100.00;100575.25;5028702;28;20614;-86
2022/05/09 11:46:12;;;;;;;1.23;1.13;;;;;;;14.34;100.00;100551.44;5056044;28;20037;-84